Oakdale, Kentucky
Current Conditions -  °F | °C
As of 6:53 AM on Saturday 25 Oct 2014 (Local Time) from KPAH Reporting Station
Overcast Overcast  
Wind Chill: 14°   Ceiling: 4400
Heat Index: 14°   Visibility: 8mi
Dew Point: 12°   Wind: 7mph
Humidity: 89%   Direction: 230°SW
Pressure: 30.03"   Gusts: NA
Location:  37.0331°N, 88.716°W
Report Text: KPAH 251153Z 23006KT 8SM OVC044 14/12 A3003 RMK AO2 SLP168 T01390122 10144 20111 50004
Loading
Personal Weather Stations






























Interactive Weather Map
Tropical Storm Tracking
New forecast layout! Learn more

10-Day Weather Forecast

Advertisements
Track Severe Weather on mobile